Time;durP1;ratioP1;P1;durP2;ratioP2;P2;SDS_P1;SDS_P2;PMS_P1;PMS_P2;Temp;Humidity;BMP_temperature;BMP_pressure;BME280_temperature;BME280_humidity;BME280_pressure;Samples;Min_cycle;Max_cycle;Signal;HPM_P1;HPM_P2
2022/01/20 00:00:50;;;;;;;13.13;1.90;;;4.20;99.90;;;;;;5071856;28;20079;-75
2022/01/20 00:03:21;;;;;;;10.77;1.80;;;4.20;99.90;;;;;;5093556;28;20047;-73
2022/01/20 00:06:38;;;;;;;15.38;2.10;;;4.20;99.90;;;;;;5082945;28;20040;-72
2022/01/20 00:27:38;;;;;;;8.77;1.20;;;4.50;99.90;;;;;;5090931;28;20131;-72
2022/01/20 00:33:03;;;;;;;13.45;1.67;;;4.40;99.90;;;;;;5092664;28;20044;-73
2022/01/20 00:37:14;;;;;;;9.07;1.45;;;4.50;99.90;;;;;;5089387;28;20048;-73
2022/01/20 00:38:17;;;;;;;12.98;1.63;;;4.50;99.90;;;;;;5093097;28;20113;-72
2022/01/20 00:40:43;;;;;;;14.27;1.77;;;4.40;99.90;;;;;;5087772;28;20252;-73
2022/01/20 00:43:09;;;;;;;10.50;1.52;;;4.30;99.90;;;;;;5065105;28;20598;-73
2022/01/20 00:45:34;;;;;;;11.43;2.22;;;4.30;99.90;;;;;;5101007;28;20412;-73
2022/01/20 00:48:00;;;;;;;9.98;1.77;;;4.30;99.90;;;;;;5075111;28;20040;-73
2022/01/20 00:50:26;;;;;;;13.55;2.03;;;4.30;99.90;;;;;;5090453;28;20069;-73
2022/01/20 00:52:52;;;;;;;12.38;1.48;;;4.20;99.90;;;;;;5089661;28;20032;-73
2022/01/20 00:55:18;;;;;;;11.65;1.80;;;4.10;99.90;;;;;;5091905;28;20489;-73
2022/01/20 00:57:43;;;;;;;10.50;1.67;;;4.10;99.90;;;;;;5088153;28;20044;-73
2022/01/20 01:00:11;;;;;;;12.13;2.00;;;4.10;99.90;;;;;;5079608;28;20096;-73
2022/01/20 01:02:37;;;;;;;9.57;1.65;;;4.20;99.90;;;;;;5062292;28;20040;-73
2022/01/20 01:05:04;;;;;;;12.98;1.95;;;4.20;99.90;;;;;;5061434;28;20056;-73
2022/01/20 01:09:59;;;;;;;10.98;1.67;;;4.20;99.90;;;;;;5097838;28;20117;-73
2022/01/20 01:12:37;;;;;;;12.90;1.67;;;4.20;99.90;;;;;;5096009;28;20476;-73
2022/01/20 01:15:06;;;;;;;12.68;1.80;;;4.20;99.90;;;;;;5077682;28;20373;-73
2022/01/20 01:20:20;;;;;;;13.73;2.30;;;4.10;99.90;;;;;;5091441;28;20496;-73
2022/01/20 01:22:46;;;;;;;15.60;1.83;;;4.10;99.90;;;;;;5075594;28;20044;-73
2022/01/20 01:25:12;;;;;;;12.00;1.85;;;4.10;99.90;;;;;;5074695;28;20462;-73
2022/01/20 01:27:40;;;;;;;15.25;2.00;;;4.10;99.90;;;;;;5092416;28;20044;-73
2022/01/20 01:30:35;;;;;;;12.57;1.65;;;4.10;99.90;;;;;;5091546;28;20074;-73
2022/01/20 01:33:04;;;;;;;8.90;1.50;;;4.20;99.90;;;;;;5075508;28;20036;-74
2022/01/20 01:35:29;;;;;;;9.63;1.27;;;4.20;99.90;;;;;;5091427;28;20051;-73
2022/01/20 01:40:23;;;;;;;10.85;1.27;;;4.30;99.90;;;;;;5089952;28;20044;-74
2022/01/20 01:42:51;;;;;;;8.60;1.00;;;4.40;99.90;;;;;;5075314;28;20499;-73
2022/01/20 01:45:25;;;;;;;9.10;1.48;;;4.40;99.90;;;;;;5073791;28;20043;-74
2022/01/20 01:47:50;;;;;;;6.93;1.40;;;4.40;99.90;;;;;;5075214;28;20407;-74
2022/01/20 01:50:16;;;;;;;10.15;1.20;;;4.40;99.90;;;;;;5074803;28;20043;-74
2022/01/20 01:52:42;;;;;;;8.35;0.98;;;4.30;99.90;;;;;;5092157;28;20532;-74
2022/01/20 01:55:09;;;;;;;10.00;1.30;;;4.30;99.90;;;;;;5091510;28;20122;-74
2022/01/20 01:57:35;;;;;;;6.97;1.10;;;4.20;99.90;;;;;;5092108;28;20048;-74
2022/01/20 02:00:01;;;;;;;6.72;1.13;;;4.20;99.90;;;;;;5074654;28;20051;-74
2022/01/20 02:02:27;;;;;;;4.68;0.82;;;4.20;99.90;;;;;;5091995;28;20097;-73
2022/01/20 02:04:52;;;;;;;5.40;0.75;;;4.30;99.90;;;;;;5074379;28;20036;-74
2022/01/20 02:20:47;;;;;;;5.60;1.27;;;4.10;99.90;;;;;;5077214;28;20040;-73
2022/01/20 02:23:12;;;;;;;11.20;1.60;;;4.00;99.90;;;;;;5074894;28;20044;-73
2022/01/20 02:25:38;;;;;;;7.07;1.05;;;4.10;99.90;;;;;;5091080;28;20067;-74
2022/01/20 02:28:06;;;;;;;10.07;1.15;;;4.10;99.90;;;;;;5070402;28;20045;-73
2022/01/20 02:30:33;;;;;;;8.50;1.20;;;4.20;99.90;;;;;;5084346;28;20039;-73
2022/01/20 02:33:02;;;;;;;7.38;0.98;;;4.10;99.90;;;;;;5074347;28;20055;-73
2022/01/20 02:35:31;;;;;;;11.00;1.45;;;4.20;99.90;;;;;;5073983;28;20047;-73
2022/01/20 02:37:59;;;;;;;8.73;1.20;;;4.20;99.90;;;;;;5089924;28;20122;-74
2022/01/20 02:45:40;;;;;;;14.18;1.52;;;4.20;99.90;;;;;;5091604;28;20044;-73
2022/01/20 02:48:06;;;;;;;13.40;2.08;;;4.30;99.90;;;;;;5090540;28;20055;-73
2022/01/20 02:50:31;;;;;;;10.65;1.20;;;4.20;99.90;;;;;;5092390;28;20036;-73
2022/01/20 02:52:57;;;;;;;14.07;2.40;;;4.10;99.90;;;;;;5074222;28;20037;-73
2022/01/20 02:55:22;;;;;;;10.15;1.88;;;4.10;99.90;;;;;;5075230;28;20401;-73
2022/01/20 02:57:48;;;;;;;10.68;1.70;;;4.10;99.90;;;;;;5071076;28;20043;-73
2022/01/20 03:00:14;;;;;;;13.45;1.83;;;4.00;99.90;;;;;;5095176;28;20109;-73
2022/01/20 03:02:42;;;;;;;10.52;2.08;;;4.10;99.90;;;;;;5094113;28;20073;-74
2022/01/20 03:05:10;;;;;;;14.15;1.80;;;4.00;99.90;;;;;;5078257;28;20063;-73
2022/01/20 03:07:37;;;;;;;11.38;1.98;;;3.90;99.90;;;;;;5094305;28;20036;-73
2022/01/20 03:10:04;;;;;;;12.20;1.77;;;3.90;99.90;;;;;;5095239;28;20036;-73
2022/01/20 03:12:30;;;;;;;14.57;2.25;;;3.90;99.90;;;;;;5076499;28;20031;-73
2022/01/20 03:14:55;;;;;;;11.75;1.83;;;3.90;99.90;;;;;;5078095;28;20396;-73
2022/01/20 03:17:21;;;;;;;15.27;2.13;;;4.00;99.90;;;;;;5093077;28;20036;-73
2022/01/20 03:19:46;;;;;;;15.70;2.22;;;3.90;99.90;;;;;;5094890;28;20067;-74
2022/01/20 03:22:12;;;;;;;19.33;3.25;;;4.00;99.90;;;;;;5077080;28;20078;-73
2022/01/20 03:24:37;;;;;;;16.77;2.28;;;4.00;99.90;;;;;;5077794;28;20040;-73
2022/01/20 03:27:03;;;;;;;17.27;4.55;;;4.10;99.90;;;;;;5093814;28;20373;-73
2022/01/20 03:29:29;;;;;;;16.08;2.22;;;4.10;99.90;;;;;;5094886;28;20031;-73
2022/01/20 03:31:54;;;;;;;12.35;2.45;;;4.10;99.90;;;;;;5093953;28;20119;-73
2022/01/20 03:34:23;;;;;;;20.92;2.38;;;4.10;99.90;;;;;;5093927;28;20043;-73
2022/01/20 03:36:49;;;;;;;12.73;2.17;;;4.10;99.90;;;;;;5092991;28;20117;-73
2022/01/20 03:39:14;;;;;;;13.45;2.28;;;4.20;99.90;;;;;;5072610;28;20043;-73
2022/01/20 03:41:40;;;;;;;9.80;2.13;;;4.10;99.90;;;;;;5075699;28;20032;-73
2022/01/20 03:44:05;;;;;;;18.00;2.72;;;4.20;99.90;;;;;;5094164;28;20110;-73
2022/01/20 03:46:32;;;;;;;18.90;3.15;;;4.20;99.90;;;;;;5074677;28;20052;-73
2022/01/20 03:49:08;;;;;;;19.80;3.20;;;4.10;99.90;;;;;;5085952;28;20518;-73
2022/01/20 03:51:34;;;;;;;14.85;2.92;;;4.10;99.90;;;;;;5073991;28;20032;-73
2022/01/20 03:54:00;;;;;;;14.60;2.75;;;4.10;99.90;;;;;;5073876;28;20036;-73
2022/01/20 03:56:25;;;;;;;16.27;3.33;;;4.10;99.90;;;;;;5076188;28;20089;-74
2022/01/20 03:58:52;;;;;;;15.88;2.28;;;4.10;99.90;;;;;;5076407;28;20039;-73
2022/01/20 04:01:18;;;;;;;11.00;1.83;;;4.10;99.90;;;;;;5074691;28;20051;-73
2022/01/20 04:03:44;;;;;;;12.82;2.35;;;4.10;99.90;;;;;;5074841;28;20040;-74
2022/01/20 04:06:11;;;;;;;14.18;2.20;;;4.10;99.90;;;;;;5089046;28;20044;-74
2022/01/20 04:08:43;;;;;;;7.93;1.77;;;4.10;99.90;;;;;;5073826;28;20426;-74
2022/01/20 04:11:11;;;;;;;10.57;2.13;;;4.10;99.90;;;;;;5091462;28;20082;-74
2022/01/20 04:13:37;;;;;;;10.25;1.83;;;4.10;99.90;;;;;;5091275;28;20042;-74
2022/01/20 04:16:18;;;;;;;10.98;1.55;;;4.00;99.90;;;;;;5093700;28;20032;-73
2022/01/20 04:18:55;;;;;;;10.43;1.60;;;4.00;96.90;;;;;;5093159;28;20404;-74
2022/01/20 04:21:22;;;;;;;12.90;2.40;;;4.10;98.60;;;;;;5076768;28;20039;-73
2022/01/20 04:23:48;;;;;;;12.02;2.03;;;4.00;99.90;;;;;;5092947;28;20040;-73
2022/01/20 04:26:14;;;;;;;9.13;1.60;;;4.00;97.70;;;;;;5076540;28;20040;-73
2022/01/20 04:28:40;;;;;;;9.30;2.38;;;3.90;98.10;;;;;;5091924;28;20032;-73
2022/01/20 04:31:05;;;;;;;9.32;1.60;;;3.90;99.40;;;;;;5076594;28;20028;-73
2022/01/20 04:33:31;;;;;;;9.88;2.00;;;3.90;97.90;;;;;;5092555;28;20119;-73
2022/01/20 04:35:56;;;;;;;9.38;1.58;;;3.80;98.80;;;;;;5093409;28;20105;-74
2022/01/20 04:38:22;;;;;;;7.45;1.45;;;3.90;97.00;;;;;;5075721;28;20052;-73
2022/01/20 04:40:48;;;;;;;11.75;1.70;;;3.80;98.30;;;;;;5076426;28;20071;-73
2022/01/20 04:43:13;;;;;;;13.70;2.00;;;3.80;94.30;;;;;;5090448;28;20404;-73
2022/01/20 04:45:46;;;;;;;9.18;1.58;;;3.80;99.90;;;;;;5076128;28;20507;-74
2022/01/20 04:48:26;;;;;;;9.13;1.50;;;3.70;95.70;;;;;;5091062;28;20127;-73
2022/01/20 04:59:04;;;;;;;16.10;2.45;;;3.70;99.90;;;;;;5092204;28;20044;-74
2022/01/20 05:01:30;;;;;;;11.77;1.70;;;3.70;99.90;;;;;;5091931;28;20085;-74
2022/01/20 05:03:56;;;;;;;14.15;2.95;;;3.60;99.90;;;;;;5092810;28;20123;-74
2022/01/20 05:06:22;;;;;;;12.32;1.70;;;3.70;99.90;;;;;;5092790;28;20068;-74
2022/01/20 05:08:49;;;;;;;12.90;2.22;;;3.60;99.90;;;;;;5073437;28;20507;-74
2022/01/20 05:11:16;;;;;;;11.77;1.75;;;3.60;99.90;;;;;;5092699;28;20047;-74
2022/01/20 05:13:41;;;;;;;11.30;2.00;;;3.60;99.90;;;;;;5091394;28;20048;-74
2022/01/20 05:16:08;;;;;;;12.48;2.30;;;3.60;99.90;;;;;;5092098;28;20036;-74
2022/01/20 05:18:34;;;;;;;15.15;2.03;;;3.60;99.90;;;;;;5092034;28;20070;-74
2022/01/20 05:21:00;;;;;;;12.95;2.13;;;3.50;99.90;;;;;;5092574;28;20059;-74
2022/01/20 05:23:26;;;;;;;11.35;1.70;;;3.50;99.90;;;;;;5075025;28;20484;-73
2022/01/20 05:25:51;;;;;;;9.48;1.52;;;3.60;99.90;;;;;;5092436;28;20036;-74
2022/01/20 05:28:17;;;;;;;4.97;1.55;;;3.60;99.90;;;;;;5074835;28;20028;-74
2022/01/20 05:30:43;;;;;;;6.75;1.10;;;3.50;99.90;;;;;;5092437;28;20036;-74
2022/01/20 05:33:09;;;;;;;6.45;1.08;;;3.40;99.90;;;;;;5091041;28;20036;-74
2022/01/20 05:35:35;;;;;;;10.43;1.55;;;3.30;99.90;;;;;;5092329;28;20484;-74
2022/01/20 05:38:01;;;;;;;5.63;0.90;;;3.30;99.90;;;;;;5091849;28;20054;-74
2022/01/20 05:40:27;;;;;;;7.32;1.13;;;3.30;99.90;;;;;;5092268;28;20040;-74
2022/01/20 05:42:53;;;;;;;5.95;1.20;;;3.30;99.90;;;;;;5074596;28;20381;-74
2022/01/20 05:45:19;;;;;;;7.72;1.35;;;3.20;99.90;;;;;;5090974;28;20122;-74
2022/01/20 05:47:47;;;;;;;5.97;0.90;;;3.30;99.90;;;;;;5090769;28;20043;-74
2022/01/20 05:50:17;;;;;;;5.30;1.30;;;3.20;99.90;;;;;;5075287;28;20040;-74
2022/01/20 05:52:43;;;;;;;7.63;1.60;;;3.20;99.90;;;;;;5073636;28;20032;-74
2022/01/20 05:55:20;;;;;;;8.48;1.40;;;3.20;99.90;;;;;;5074773;28;20101;-74
2022/01/20 05:57:46;;;;;;;11.45;1.90;;;3.10;99.90;;;;;;5074293;28;20492;-74
2022/01/20 06:00:20;;;;;;;8.00;1.70;;;3.10;99.90;;;;;;5075488;28;20036;-74
2022/01/20 06:05:31;;;;;;;11.27;2.28;;;3.10;99.90;;;;;;5091857;28;20071;-74
2022/01/20 06:07:57;;;;;;;11.75;2.90;;;3.00;99.90;;;;;;5074478;28;20064;-74
2022/01/20 06:10:22;;;;;;;11.95;2.00;;;3.10;99.90;;;;;;5092189;28;20051;-74
2022/01/20 06:12:48;;;;;;;11.48;1.73;;;3.00;99.90;;;;;;5091264;28;20040;-74
2022/01/20 06:15:13;;;;;;;13.10;2.00;;;3.00;99.90;;;;;;5092059;28;20085;-74
2022/01/20 06:17:40;;;;;;;13.57;2.20;;;3.00;99.90;;;;;;5090847;28;20043;-74
2022/01/20 06:20:07;;;;;;;15.48;2.53;;;3.00;99.90;;;;;;5091307;28;20386;-74
2022/01/20 06:22:32;;;;;;;10.85;1.92;;;3.00;99.90;;;;;;5092103;28;20378;-74
2022/01/20 06:24:58;;;;;;;13.02;2.40;;;3.10;99.90;;;;;;5073188;28;20044;-74
2022/01/20 06:27:23;;;;;;;12.65;2.50;;;3.10;99.90;;;;;;5094643;28;20036;-74
2022/01/20 06:29:49;;;;;;;14.77;2.03;;;3.20;99.90;;;;;;5060951;28;20162;-74
2022/01/20 06:32:15;;;;;;;13.13;2.28;;;3.20;99.90;;;;;;5075720;28;20036;-74
2022/01/20 06:34:40;;;;;;;12.20;2.20;;;3.20;99.90;;;;;;5091418;28;20102;-74
2022/01/20 06:37:06;;;;;;;11.70;2.17;;;3.10;99.90;;;;;;5079052;28;20036;-74
2022/01/20 06:39:32;;;;;;;9.13;1.77;;;3.10;99.90;;;;;;5077789;28;20044;-74
2022/01/20 06:41:57;;;;;;;14.43;2.08;;;3.20;99.90;;;;;;5095722;28;20039;-74
2022/01/20 06:44:23;;;;;;;13.18;2.40;;;3.20;99.90;;;;;;5094641;28;20119;-74
2022/01/20 06:46:49;;;;;;;13.75;2.20;;;3.20;99.90;;;;;;5095238;28;20462;-74
2022/01/20 06:49:16;;;;;;;12.48;2.13;;;3.30;99.90;;;;;;5077802;28;20131;-74
2022/01/20 06:51:41;;;;;;;8.85;1.73;;;3.40;99.90;;;;;;5092417;28;20039;-74
2022/01/20 06:54:07;;;;;;;17.20;2.28;;;3.40;99.90;;;;;;5092680;28;20450;-74
2022/01/20 06:56:33;;;;;;;9.73;1.50;;;3.30;99.90;;;;;;5093026;28;20042;-74
2022/01/20 06:58:59;;;;;;;11.05;2.00;;;3.10;99.90;;;;;;5095100;28;20047;-74
2022/01/20 07:01:24;;;;;;;8.95;2.47;;;3.00;99.90;;;;;;5077402;28;20461;-73
2022/01/20 07:03:50;;;;;;;11.45;1.90;;;3.00;99.90;;;;;;5095082;28;20048;-74
2022/01/20 07:06:15;;;;;;;10.30;1.58;;;3.00;99.90;;;;;;5077482;28;20396;-74
2022/01/20 07:08:41;;;;;;;15.65;1.83;;;3.00;99.90;;;;;;5095010;28;20044;-74
2022/01/20 07:11:07;;;;;;;10.52;1.48;;;3.00;99.90;;;;;;5092834;28;20040;-74
2022/01/20 07:13:32;;;;;;;14.25;1.75;;;2.90;99.90;;;;;;5094494;28;20051;-74
2022/01/20 07:15:58;;;;;;;11.73;1.60;;;2.80;99.90;;;;;;5094052;28;20043;-74
2022/01/20 07:18:23;;;;;;;10.25;1.42;;;2.80;99.90;;;;;;5094935;28;20036;-74
2022/01/20 07:20:49;;;;;;;10.45;1.98;;;2.80;99.90;;;;;;5077156;28;20128;-74
2022/01/20 07:23:14;;;;;;;11.00;1.67;;;2.80;99.90;;;;;;5077517;28;20128;-74
2022/01/20 07:25:40;;;;;;;8.10;1.40;;;2.80;99.90;;;;;;5077634;28;20047;-74
2022/01/20 07:28:05;;;;;;;11.70;2.00;;;2.80;99.90;;;;;;5093359;28;20035;-74
2022/01/20 07:30:31;;;;;;;12.48;2.13;;;2.80;99.90;;;;;;5077776;28;20081;-74
2022/01/20 07:32:58;;;;;;;8.20;1.38;;;2.80;99.90;;;;;;5073317;28;20093;-74
2022/01/20 07:35:24;;;;;;;13.60;1.75;;;2.90;99.90;;;;;;5083831;28;20036;-74
2022/01/20 07:37:49;;;;;;;13.25;2.33;;;3.00;99.90;;;;;;5089765;28;20046;-74
2022/01/20 07:40:15;;;;;;;14.25;2.15;;;3.00;99.90;;;;;;5092500;28;20101;-74
2022/01/20 07:42:41;;;;;;;15.25;2.45;;;3.00;99.90;;;;;;5090144;28;20495;-74
2022/01/20 07:45:08;;;;;;;14.70;2.38;;;3.00;99.90;;;;;;5092176;28;20055;-74
2022/01/20 07:47:34;;;;;;;10.70;2.22;;;3.00;99.90;;;;;;5075288;28;20461;-74
2022/01/20 07:50:00;;;;;;;9.88;1.95;;;3.00;99.90;;;;;;5091757;28;20036;-74
2022/01/20 07:52:25;;;;;;;8.95;1.50;;;2.90;99.90;;;;;;5076319;28;20032;-74
2022/01/20 07:54:51;;;;;;;11.48;1.70;;;2.90;99.90;;;;;;5092927;28;20500;-74
2022/01/20 07:57:16;;;;;;;13.43;1.80;;;2.90;99.90;;;;;;5092168;28;20122;-74
2022/01/20 07:59:42;;;;;;;11.60;2.38;;;2.90;99.90;;;;;;5075945;28;20051;-74
2022/01/20 08:02:08;;;;;;;10.55;1.70;;;2.90;99.90;;;;;;5075188;28;20039;-74
2022/01/20 08:04:34;;;;;;;11.25;2.30;;;2.90;99.90;;;;;;5073548;28;20032;-74
2022/01/20 08:06:59;;;;;;;10.70;1.95;;;3.00;99.90;;;;;;5092528;28;20484;-74
2022/01/20 08:09:25;;;;;;;10.98;1.60;;;3.00;99.90;;;;;;5091926;28;20488;-74
2022/01/20 08:11:50;;;;;;;8.25;1.48;;;3.00;99.90;;;;;;5076162;28;20051;-74
2022/01/20 08:14:16;;;;;;;10.80;1.63;;;3.00;99.90;;;;;;5074681;28;20044;-74
2022/01/20 08:16:42;;;;;;;13.30;1.90;;;3.10;99.90;;;;;;5075693;28;20055;-74
2022/01/20 08:19:07;;;;;;;11.15;1.95;;;3.10;99.90;;;;;;5075088;28;20044;-74
2022/01/20 08:21:33;;;;;;;12.32;2.17;;;3.00;99.90;;;;;;5092518;28;20106;-73
2022/01/20 08:23:59;;;;;;;7.35;1.60;;;3.00;99.90;;;;;;5088205;28;20552;-74
2022/01/20 08:26:24;;;;;;;16.75;2.30;;;3.10;99.90;;;;;;5092538;28;20047;-74
2022/01/20 08:28:50;;;;;;;15.45;2.22;;;3.10;99.90;;;;;;5089463;28;20043;-74
2022/01/20 08:31:15;;;;;;;12.27;2.28;;;3.00;99.90;;;;;;5091979;28;20067;-74
2022/01/20 08:33:41;;;;;;;13.20;2.08;;;3.00;99.90;;;;;;5080566;28;20047;-74
2022/01/20 08:36:07;;;;;;;10.07;1.85;;;3.00;99.90;;;;;;5055527;28;20047;-73
2022/01/20 08:38:32;;;;;;;14.35;2.45;;;3.00;99.90;;;;;;5071476;28;20043;-74
2022/01/20 08:40:58;;;;;;;9.88;1.98;;;3.10;99.90;;;;;;5075123;28;20040;-74
2022/01/20 08:43:24;;;;;;;16.98;2.10;;;3.00;99.90;;;;;;5090396;28;20040;-74
2022/01/20 08:45:50;;;;;;;10.32;2.05;;;3.00;99.90;;;;;;5088755;28;20387;-74
2022/01/20 08:48:16;;;;;;;13.05;1.98;;;3.10;99.90;;;;;;5089548;28;20052;-74
2022/01/20 08:50:43;;;;;;;12.77;1.65;;;3.20;99.90;;;;;;5073005;28;20167;-74
2022/01/20 08:53:10;;;;;;;11.68;1.90;;;3.20;99.90;;;;;;5090039;28;20051;-74
2022/01/20 08:55:37;;;;;;;10.70;2.28;;;3.20;99.90;;;;;;5073922;28;20438;-74
2022/01/20 08:58:03;;;;;;;10.60;1.50;;;3.20;99.90;;;;;;5089355;28;20097;-74
2022/01/20 09:00:31;;;;;;;13.85;2.03;;;3.30;99.90;;;;;;5074002;28;20493;-74
2022/01/20 09:02:58;;;;;;;12.35;2.22;;;3.50;99.90;;;;;;5092364;28;20404;-74
2022/01/20 09:05:23;;;;;;;9.57;1.45;;;3.50;99.90;;;;;;5090420;28;20415;-74
2022/01/20 09:07:49;;;;;;;10.77;2.10;;;3.70;99.90;;;;;;5074703;28;20097;-74
2022/01/20 09:10:21;;;;;;;12.25;2.20;;;3.60;99.90;;;;;;5090724;28;20032;-74
2022/01/20 09:15:28;;;;;;;7.68;1.27;;;3.30;99.90;;;;;;5089662;28;20055;-74
2022/01/20 09:18:22;;;;;;;9.38;1.40;;;3.30;99.90;;;;;;5082135;28;20040;-74
2022/01/20 09:20:47;;;;;;;8.00;1.30;;;3.20;99.90;;;;;;5089066;28;20552;-74
2022/01/20 09:23:13;;;;;;;8.73;1.25;;;3.10;99.90;;;;;;5089446;28;20128;-74
2022/01/20 09:25:40;;;;;;;6.40;1.20;;;3.20;99.90;;;;;;5073311;28;20131;-74
2022/01/20 09:28:06;;;;;;;7.43;1.15;;;3.20;99.90;;;;;;5074784;28;20089;-74
2022/01/20 09:30:34;;;;;;;8.82;1.30;;;3.30;99.90;;;;;;5088312;28;20040;-74
2022/01/20 09:35:35;;;;;;;9.85;1.23;;;3.50;99.90;;;;;;5091597;28;20044;-75
2022/01/20 09:38:02;;;;;;;7.53;1.05;;;3.40;99.90;;;;;;5073053;28;20135;-74
2022/01/20 09:40:30;;;;;;;6.80;0.90;;;3.50;99.90;;;;;;5073386;28;20044;-74
2022/01/20 09:42:57;;;;;;;9.48;1.70;;;3.50;99.90;;;;;;5089597;28;20044;-74
2022/01/20 09:45:22;;;;;;;8.38;1.13;;;3.40;99.90;;;;;;5073968;28;20134;-74
2022/01/20 09:47:48;;;;;;;12.25;1.80;;;3.40;99.90;;;;;;5073037;28;20137;-74
2022/01/20 09:50:19;;;;;;;10.60;1.80;;;3.40;99.90;;;;;;5090818;28;20048;-74
2022/01/20 09:52:48;;;;;;;10.73;1.73;;;3.40;99.90;;;;;;5087467;28;20033;-74
2022/01/20 09:55:15;;;;;;;9.02;1.40;;;3.30;99.90;;;;;;5080585;28;20040;-74
2022/01/20 09:57:40;;;;;;;8.45;1.63;;;3.30;99.90;;;;;;5080986;28;20396;-74
2022/01/20 10:00:09;;;;;;;10.55;2.03;;;3.30;99.90;;;;;;5088908;28;20039;-74
2022/01/20 10:02:35;;;;;;;10.38;2.05;;;3.30;99.90;;;;;;5090702;28;20519;-74
2022/01/20 10:05:02;;;;;;;16.30;1.70;;;3.30;99.90;;;;;;5073582;28;20039;-74
2022/01/20 10:07:34;;;;;;;12.82;2.53;;;3.40;99.90;;;;;;5089900;28;20036;-74
2022/01/20 10:09:59;;;;;;;10.33;1.80;;;3.50;99.90;;;;;;5068586;28;20040;-74
2022/01/20 10:12:31;;;;;;;13.57;2.33;;;3.70;99.90;;;;;;5072512;28;20386;-74
2022/01/20 10:14:58;;;;;;;12.82;1.83;;;3.80;99.90;;;;;;5073944;28;20040;-74
2022/01/20 10:17:30;;;;;;;15.48;2.60;;;3.80;99.90;;;;;;5072185;28;20076;-74
2022/01/20 10:20:04;;;;;;;13.73;2.58;;;3.80;99.90;;;;;;5090618;28;20510;-74
2022/01/20 10:22:31;;;;;;;12.90;2.08;;;3.90;99.90;;;;;;5089746;28;20609;-74
2022/01/20 10:25:02;;;;;;;11.63;1.90;;;4.00;99.90;;;;;;5090814;28;20047;-74
2022/01/20 10:27:30;;;;;;;11.88;1.75;;;4.10;99.90;;;;;;5072797;28;20043;-74
2022/01/20 10:30:08;;;;;;;10.65;2.42;;;4.10;99.90;;;;;;5070526;28;20051;-74
2022/01/20 10:32:47;;;;;;;8.98;1.77;;;4.20;99.90;;;;;;5072829;28;20047;-74
2022/01/20 10:35:15;;;;;;;11.05;1.75;;;4.30;99.90;;;;;;5088315;28;20484;-74
2022/01/20 10:38:11;;;;;;;10.20;2.05;;;4.30;99.90;;;;;;5090326;28;20040;-74
2022/01/20 10:40:51;;;;;;;6.90;1.15;;;4.30;99.90;;;;;;5090034;28;20510;-74
2022/01/20 10:43:25;;;;;;;12.35;2.30;;;4.30;99.90;;;;;;5093497;28;20393;-74
2022/01/20 10:46:23;;;;;;;8.93;1.90;;;4.30;99.90;;;;;;5087319;28;20445;-74
2022/01/20 10:49:01;;;;;;;10.10;1.52;;;4.30;99.90;;;;;;5028844;28;20101;-74
2022/01/20 10:51:27;;;;;;;10.32;1.25;;;4.30;99.90;;;;;;5074022;28;20414;-74
2022/01/20 10:54:01;;;;;;;9.95;1.80;;;4.30;99.90;;;;;;5089932;28;20070;-74
2022/01/20 10:56:27;;;;;;;9.55;1.55;;;4.30;99.90;;;;;;5084412;28;20044;-74
2022/01/20 10:58:53;;;;;;;10.80;1.73;;;4.30;99.90;;;;;;5074014;28;20040;-74
2022/01/20 11:01:19;;;;;;;10.60;1.75;;;4.30;99.90;;;;;;5089150;28;20100;-74
2022/01/20 11:03:45;;;;;;;7.63;1.50;;;4.20;99.90;;;;;;5088440;28;20032;-74
2022/01/20 11:06:11;;;;;;;12.45;1.92;;;4.20;99.90;;;;;;5088919;28;20032;-74
2022/01/20 11:08:39;;;;;;;7.88;1.20;;;4.30;99.90;;;;;;5072190;28;20066;-74
2022/01/20 11:11:05;;;;;;;12.93;1.92;;;4.30;99.90;;;;;;5072538;28;20470;-74
2022/01/20 11:13:30;;;;;;;4.28;1.00;;;4.30;99.90;;;;;;5075336;28;20174;-74
2022/01/20 11:15:56;;;;;;;13.32;1.98;;;4.50;99.90;;;;;;5075603;28;20066;-74
2022/01/20 11:18:27;;;;;;;10.02;1.73;;;4.50;99.90;;;;;;5073289;28;20167;-74
2022/01/20 11:20:54;;;;;;;9.53;1.67;;;4.60;99.90;;;;;;5074970;28;20493;-74
2022/01/20 11:23:20;;;;;;;11.27;2.08;;;4.70;99.90;;;;;;5075948;28;20316;-74
2022/01/20 11:25:46;;;;;;;7.07;1.20;;;4.70;99.90;;;;;;5076072;28;20043;-74
2022/01/20 11:28:21;;;;;;;9.88;2.03;;;4.70;99.90;;;;;;5091364;28;20043;-74
2022/01/20 11:30:57;;;;;;;18.15;2.75;;;4.50;99.90;;;;;;5057200;28;20036;-73
2022/01/20 11:33:33;;;;;;;13.15;2.08;;;4.10;99.90;;;;;;5076251;28;20528;-73
2022/01/20 11:35:59;;;;;;;16.05;2.35;;;4.00;99.90;;;;;;5076875;28;20420;-73
2022/01/20 11:38:36;;;;;;;12.13;2.03;;;4.00;99.90;;;;;;5076648;28;20032;-73
2022/01/20 11:41:03;;;;;;;14.80;2.40;;;4.00;99.90;;;;;;5076356;28;20051;-73
2022/01/20 11:43:46;;;;;;;10.75;1.63;;;4.00;99.90;;;;;;5092294;28;20572;-74
2022/01/20 11:46:15;;;;;;;7.32;1.35;;;4.00;99.90;;;;;;5091236;28;20043;-74
2022/01/20 11:49:05;;;;;;;20.77;2.63;;;4.00;99.90;;;;;;5075910;28;20618;-73
2022/01/20 11:51:51;;;;;;;13.07;1.73;;;4.00;99.90;;;;;;5076041;28;20044;-74
2022/01/20 11:54:32;;;;;;;10.38;1.65;;;4.10;99.90;;;;;;5093559;28;20546;-73
2022/01/20 11:57:36;;;;;;;10.88;1.65;;;4.10;99.90;;;;;;5091728;28;20198;-73
2022/01/20 12:00:16;;;;;;;10.98;1.58;;;4.10;99.90;;;;;;5014936;28;21046;-73
2022/01/20 12:02:42;;;;;;;7.00;1.50;;;3.90;99.90;;;;;;5008807;28;20033;-73
2022/01/20 12:05:18;;;;;;;10.15;1.60;;;3.70;99.90;;;;;;5029461;28;20056;-73
2022/01/20 12:07:43;;;;;;;10.27;1.85;;;3.70;99.90;;;;;;5092410;28;20126;-73
2022/01/20 12:10:21;;;;;;;7.07;1.25;;;3.70;99.90;;;;;;5093319;28;20098;-73
2022/01/20 12:12:47;;;;;;;7.57;1.27;;;3.60;99.90;;;;;;5075801;28;20089;-73
2022/01/20 12:15:19;;;;;;;9.13;1.40;;;3.60;99.90;;;;;;5089282;28;20035;-73
2022/01/20 12:17:50;;;;;;;8.90;1.33;;;3.50;99.90;;;;;;5075184;28;20089;-73
2022/01/20 12:20:16;;;;;;;7.80;1.08;;;3.60;99.90;;;;;;5075668;28;20097;-73
2022/01/20 12:22:43;;;;;;;8.20;1.25;;;3.70;99.90;;;;;;5072112;28;20040;-73
2022/01/20 12:25:19;;;;;;;12.15;1.60;;;3.80;99.90;;;;;;5074125;28;20079;-73
2022/01/20 12:27:46;;;;;;;9.63;1.50;;;3.90;99.90;;;;;;5103337;28;20031;-73
2022/01/20 12:30:25;;;;;;;12.95;1.77;;;3.90;99.90;;;;;;5082868;28;20086;-73
2022/01/20 12:33:09;;;;;;;10.15;1.80;;;3.90;99.90;;;;;;5091208;28;20032;-73
2022/01/20 12:35:36;;;;;;;9.43;1.70;;;3.90;99.90;;;;;;5090416;28;20050;-73
2022/01/20 12:38:12;;;;;;;10.88;1.83;;;4.00;99.90;;;;;;5076407;28;20082;-74
2022/01/20 12:40:37;;;;;;;11.57;1.67;;;4.00;99.90;;;;;;5091823;28;20043;-73
2022/01/20 12:43:03;;;;;;;11.48;1.55;;;4.10;99.90;;;;;;5093413;28;20047;-73
2022/01/20 12:48:16;;;;;;;10.38;1.88;;;4.10;99.90;;;;;;5091150;28;20411;-73
2022/01/20 12:51:04;;;;;;;14.85;1.83;;;4.20;99.90;;;;;;5073616;28;20032;-73
2022/01/20 12:53:35;;;;;;;9.52;1.48;;;4.20;99.90;;;;;;5074776;28;20067;-74
2022/01/20 12:56:01;;;;;;;9.67;1.83;;;4.20;99.90;;;;;;5074357;28;20064;-74
2022/01/20 12:58:26;;;;;;;10.35;1.92;;;4.10;99.90;;;;;;5075151;28;20078;-74
2022/01/20 13:01:04;;;;;;;9.57;1.98;;;4.10;99.90;;;;;;5088477;28;20123;-73
2022/01/20 13:03:49;;;;;;;8.48;1.85;;;4.20;99.90;;;;;;5075082;28;20040;-73
2022/01/20 13:06:25;;;;;;;14.93;1.75;;;4.20;99.90;;;;;;5087633;28;20485;-74
2022/01/20 13:09:10;;;;;;;8.77;1.90;;;4.20;99.90;;;;;;5088515;28;20131;-74
2022/01/20 13:11:41;;;;;;;11.00;2.05;;;4.20;99.90;;;;;;5089763;28;20500;-74
2022/01/20 13:14:08;;;;;;;15.05;2.70;;;4.20;99.90;;;;;;5091522;28;20051;-73
2022/01/20 13:16:34;;;;;;;18.50;2.00;;;4.20;99.90;;;;;;5073912;28;20044;-74
2022/01/20 13:19:04;;;;;;;15.93;2.70;;;4.20;99.90;;;;;;5073869;28;20085;-74
2022/01/20 13:21:40;;;;;;;17.30;2.85;;;4.20;99.90;;;;;;5072696;28;20043;-74
2022/01/20 13:24:08;;;;;;;14.90;2.88;;;4.20;99.90;;;;;;5085044;28;20413;-74
2022/01/20 13:26:45;;;;;;;18.63;2.55;;;4.30;99.90;;;;;;5075858;28;20070;-74
2022/01/20 13:29:11;;;;;;;15.38;2.30;;;4.30;99.90;;;;;;5091108;28;20048;-73
2022/01/20 13:31:37;;;;;;;8.18;1.92;;;4.40;99.90;;;;;;5089261;28;20075;-73
2022/01/20 13:34:14;;;;;;;9.93;2.08;;;4.40;99.90;;;;;;5090113;28;20075;-74
2022/01/20 13:36:49;;;;;;;8.35;1.38;;;4.30;99.90;;;;;;5069624;28;20076;-74
2022/01/20 13:39:37;;;;;;;7.43;1.58;;;4.20;99.90;;;;;;5071737;28;20050;-74
2022/01/20 13:45:12;;;;;;;10.00;1.45;;;4.10;99.90;;;;;;5080784;28;20047;-74
2022/01/20 13:47:58;;;;;;;9.05;1.20;;;4.10;99.90;;;;;;5068830;28;20105;-73
2022/01/20 13:50:36;;;;;;;6.07;1.02;;;4.10;99.90;;;;;;5075223;28;20066;-73
2022/01/20 13:53:13;;;;;;;9.20;1.73;;;4.10;99.90;;;;;;5073588;28;20658;-74
2022/01/20 13:55:39;;;;;;;8.10;1.20;;;4.10;99.90;;;;;;5075500;28;20500;-73
2022/01/20 13:58:06;;;;;;;10.85;1.33;;;4.20;99.90;;;;;;5089080;28;20043;-73
2022/01/20 14:00:34;;;;;;;9.10;1.40;;;4.00;99.90;;;;;;5074856;28;20126;-73
2022/01/20 14:03:00;;;;;;;9.38;1.63;;;3.90;99.90;;;;;;5074375;28;20043;-74
2022/01/20 14:05:32;;;;;;;9.43;1.63;;;3.80;99.90;;;;;;5075350;28;20094;-74
2022/01/20 14:08:02;;;;;;;13.02;1.70;;;3.80;99.90;;;;;;5071773;28;20089;-74